METAR UND TAF INFORMATION

METAR FOR DTNH
ADDS - METARS form results

(0149 UTC 26 June 2022)
Data provider http://aviationweather.gov/metar/data/
 
METAR text: DTNH 260130Z 14002KT CAVOK 21/19 Q1012 NOSIG
Conditions at: DTNH (ENFIDHA , TN) observed 0130 UTC 26 June 2022
Temperature: 21.0°C (70°F)
Dewpoint: 19.0°C (66°F) [RH = 88%]
Pressure (altimeter): 29.88 inches Hg (1012.0 mb)
Winds: from the SE (140 degrees) at 2 MPH (2 knots; 1.0 m/s)
Visibility: 6 or more miles (10+ km)
Ceiling: ceiling and visibility are OK
Clouds: unknown
Weather: no significant weather observed at this time

METAR text: DTNH 260100Z VRB01KT CAVOK 21/18 Q1012 NOSIG
Conditions at: DTNH (ENFIDHA , TN) observed 0100 UTC 26 June 2022
Temperature: 21.0°C (70°F)
Dewpoint: 18.0°C (64°F) [RH = 83%]
Pressure (altimeter): 29.88 inches Hg (1012.0 mb)
Winds: variable direction winds at 1 MPH (1 knots; 0.5 m/s)
Visibility: 6 or more miles (10+ km)
Ceiling: ceiling and visibility are OK
Clouds: unknown
Weather: no significant weather observed at this time

Forecast for: DTNH (ENFIDHA , TN)
Text: TAF DTNH 252300Z 2600/2624 VRB02KT CAVOK
Forecast period: 0000 to 0800 UTC 26 June 2022
Forecast type: FROM: standard forecast or significant change
Winds: variable direction winds at 2 MPH (2 knots; 1.0 m/s)
Visibility: 6 or more miles (10+ km)
Ceiling: unknown
Clouds: missing
Weather: NSW  (no significant weather)
Text: BECMG 2608/2610 08010KT
Forecast period: 0800 to 2100 UTC 26 June 2022
Forecast type: BECOMING: Conditions expected to become as follows by 1000 UTC 26 June 2022
Winds: from the E (80 degrees) at 12 MPH (10 knots; 5.1 m/s)
Visibility: 6 or more miles (10+ km)
Ceiling: unknown
Clouds: missing
Weather: NSW  (no significant weather)
Text: BECMG 2621/2623 VRB03KT
Forecast period: 2100 UTC 26 June 2022 to 0000 UTC 27 June 2022
Forecast type: BECOMING: Conditions expected to become as follows by 2300 UTC 26 June 2022
Winds: variable direction winds at 3 MPH (3 knots; 1.5 m/s)
Visibility: 6 or more miles (10+ km)
Ceiling: unknown
Clouds: missing
Weather: NSW  (no significant weather)

 FLUGHAFENKARTE

 RUNWAY INFORMATION

 AIRPORT FREQUENCIES

 AIRPORT NEAR NAVIGATION AIDS